Pleasant Point, Maine
Current Conditions -  °F | °C
As of 6:00 PM on Tuesday 27 Jan 2015 (Local Time) from CYSJ Reporting Station
Light Snow Light Snow  
Wind Chill:   Ceiling: 1400
Heat Index: 19°   Visibility: 1mi
Dew Point: 16°   Wind: 23mph
Humidity: 86%   Direction: 40°NE
Pressure: 29.54"   Gusts: 37mph
Location:  44.9831°N, 67.1057°W
Report Text: CYSJ 272300Z 04020G32KT 1SM R05/P6000FT/N -SN DRSN BKN014 OVC028 M07/M09 A2954 RMK SF5SC3 SLP011
Loading
Personal Weather Stations






























Interactive Weather Map New forecast layout! Learn more

10-Day Weather Forecast

Advertisements
Track Severe Weather on mobile